createdAt,value
2023-04-15T00:01:45.792Z,20.25
2023-04-15T00:04:12.431Z,20.52
2023-04-15T00:06:39.859Z,18.77
2023-04-15T00:09:06.425Z,20.23
2023-04-15T00:11:33.157Z,21.63
2023-04-15T00:14:00.759Z,17.27
2023-04-15T00:16:28.497Z,17.88
2023-04-15T00:18:55.178Z,19.80
2023-04-15T00:21:21.817Z,18.83
2023-04-15T00:23:52.550Z,18.67
2023-04-15T00:26:19.730Z,19.40
2023-04-15T00:28:48.542Z,17.88
2023-04-15T00:31:15.454Z,21.88
2023-04-15T00:33:42.196Z,19.65
2023-04-15T00:36:10.100Z,20.33
2023-04-15T00:38:38.212Z,18.80
2023-04-15T00:41:05.071Z,16.98
2023-04-15T00:43:31.631Z,18.70
2023-04-15T00:45:58.874Z,16.48
2023-04-15T00:48:27.297Z,15.13
2023-04-15T00:50:54.187Z,15.10
2023-04-15T00:53:20.766Z,15.25
2023-04-15T00:55:47.389Z,13.82
2023-04-15T00:58:14.276Z,13.77
2023-04-15T01:00:43.036Z,13.90
2023-04-15T01:03:10.320Z,14.77
2023-04-15T01:05:38.472Z,12.52
2023-04-15T01:08:05.697Z,13.82
2023-04-15T01:10:33.302Z,13.68
2023-04-15T01:13:00.126Z,15.82
2023-04-15T01:15:27.637Z,15.60
2023-04-15T01:17:54.275Z,14.32
2023-04-15T01:20:22.111Z,12.88
2023-04-15T01:22:49.368Z,11.98
2023-04-15T01:25:19.522Z,14.00
2023-04-15T01:27:46.470Z,14.13
2023-04-15T01:30:13.060Z,14.00
2023-04-15T01:32:39.598Z,12.07
2023-04-15T01:35:06.533Z,12.57
2023-04-15T01:37:33.081Z,13.02
2023-04-15T01:39:59.787Z,12.65
2023-04-15T01:42:27.891Z,13.18
2023-04-15T01:44:54.820Z,12.25
2023-04-15T01:47:21.599Z,12.02
2023-04-15T01:49:48.463Z,12.63
2023-04-15T01:52:15.741Z,12.93
2023-04-15T01:54:42.574Z,13.30
2023-04-15T01:57:09.841Z,14.20
2023-04-15T01:59:37.156Z,14.40
2023-04-15T02:02:04.354Z,14.25
2023-04-15T02:04:30.915Z,14.88
2023-04-15T02:07:00.137Z,13.60
2023-04-15T02:09:26.641Z,14.60
2023-04-15T02:11:54.376Z,16.33
2023-04-15T02:14:21.080Z,17.63
2023-04-15T02:16:47.623Z,18.30
2023-04-15T02:19:15.743Z,18.95
2023-04-15T02:21:42.352Z,20.00
2023-04-15T02:24:09.092Z,19.45
2023-04-15T02:26:35.578Z,22.60
2023-04-15T02:29:02.460Z,23.58
2023-04-15T02:31:29.136Z,25.15
2023-04-15T02:33:55.609Z,24.45
2023-04-15T02:36:23.922Z,24.95
2023-04-15T02:38:50.765Z,25.85
2023-04-15T02:41:28.397Z,28.25
2023-04-15T02:43:55.075Z,23.30
2023-04-15T02:46:22.989Z,26.65
2023-04-15T02:48:50.275Z,25.65
2023-04-15T02:51:19.663Z,28.17
2023-04-15T02:53:46.838Z,25.30
2023-04-15T02:56:15.200Z,25.00
2023-04-15T02:58:42.234Z,25.92
2023-04-15T03:01:11.838Z,24.02
2023-04-15T03:03:39.255Z,21.50
2023-04-15T03:06:06.094Z,21.73
2023-04-15T03:08:32.639Z,21.60
2023-04-15T03:11:00.865Z,20.42
2023-04-15T03:13:27.544Z,22.20
2023-04-15T03:15:55.661Z,24.92
2023-04-15T03:18:23.635Z,22.63
2023-04-15T03:20:50.115Z,24.52
2023-04-15T03:23:17.256Z,21.50
2023-04-15T03:25:44.972Z,21.63
2023-04-15T03:28:11.479Z,17.40
2023-04-15T03:30:38.001Z,16.05
2023-04-15T03:33:04.621Z,15.60
2023-04-15T03:35:31.577Z,15.18
2023-04-15T03:37:58.096Z,14.07
2023-04-15T03:40:24.611Z,13.50
2023-04-15T03:42:51.050Z,16.27
2023-04-15T03:45:17.496Z,13.85
2023-04-15T03:47:44.086Z,13.05
2023-04-15T03:50:11.039Z,15.50
2023-04-15T03:52:37.684Z,15.98
2023-04-15T03:55:04.417Z,15.18
2023-04-15T03:57:31.373Z,16.60
2023-04-15T03:59:57.777Z,16.13
2023-04-15T04:02:24.592Z,15.57
2023-04-15T04:04:51.269Z,18.77
2023-04-15T04:07:18.262Z,15.85
2023-04-15T04:09:46.699Z,16.67
2023-04-15T04:12:13.816Z,15.77
2023-04-15T04:14:40.701Z,14.35
2023-04-15T04:17:07.468Z,16.08
2023-04-15T04:19:34.278Z,16.00
2023-04-15T04:22:01.007Z,17.50
2023-04-15T04:24:27.548Z,18.67
2023-04-15T04:26:54.133Z,18.45
2023-04-15T04:29:20.866Z,18.02
2023-04-15T04:31:48.699Z,19.75
2023-04-15T04:34:16.092Z,20.92
2023-04-15T04:36:42.701Z,20.73
2023-04-15T04:39:09.186Z,21.30
2023-04-15T04:41:35.712Z,27.35
2023-04-15T04:44:02.495Z,27.83
2023-04-15T04:46:29.145Z,28.80
2023-04-15T04:48:55.758Z,33.10
2023-04-15T04:51:22.575Z,31.42
2023-04-15T04:53:49.161Z,30.05
2023-04-15T04:56:15.998Z,29.45
2023-04-15T04:58:42.580Z,34.38
2023-04-15T05:01:09.337Z,25.77
2023-04-15T05:03:36.496Z,26.63
2023-04-15T05:06:06.092Z,22.25
2023-04-15T05:08:32.860Z,21.05
2023-04-15T05:10:59.339Z,20.23
2023-04-15T05:13:26.115Z,18.08
2023-04-15T05:15:52.663Z,17.50
2023-04-15T05:18:19.174Z,17.92
2023-04-15T05:20:46.244Z,16.40
2023-04-15T05:23:12.830Z,17.02
2023-04-15T05:25:39.277Z,13.85
2023-04-15T05:28:05.856Z,16.20
2023-04-15T05:30:32.389Z,16.20
2023-04-15T05:32:58.963Z,16.45
2023-04-15T05:35:25.757Z,15.27
2023-04-15T05:37:52.305Z,13.68
2023-04-15T05:40:18.862Z,14.02
2023-04-15T05:42:45.663Z,14.30
2023-04-15T05:45:12.267Z,12.80
2023-04-15T05:47:38.820Z,13.65
2023-04-15T05:50:06.540Z,11.93
2023-04-15T05:52:32.985Z,10.65
2023-04-15T05:54:59.532Z,10.35
2023-04-15T05:57:26.325Z,10.35
2023-04-15T05:59:53.444Z,11.30
2023-04-15T06:02:20.443Z,8.63
2023-04-15T06:04:47.403Z,9.32
2023-04-15T06:07:14.130Z,8.50
2023-04-15T06:09:40.607Z,8.18
2023-04-15T06:12:12.030Z,10.63
2023-04-15T06:14:39.578Z,6.93
2023-04-15T06:17:06.337Z,8.75
2023-04-15T06:19:34.546Z,6.93
2023-04-15T06:22:01.590Z,6.32
2023-04-15T06:24:28.580Z,6.82
2023-04-15T06:26:55.174Z,6.47
2023-04-15T06:29:21.613Z,7.43
2023-04-15T06:31:49.286Z,5.68
2023-04-15T06:34:15.814Z,4.78
2023-04-15T06:36:42.336Z,5.07
2023-04-15T06:39:08.937Z,4.57
2023-04-15T06:41:36.058Z,5.05
2023-04-15T06:44:03.043Z,5.20
2023-04-15T06:46:29.487Z,5.57
2023-04-15T06:48:56.193Z,4.13
2023-04-15T06:51:26.114Z,7.80
2023-04-15T06:53:53.295Z,5.43
2023-04-15T06:56:19.753Z,6.60
2023-04-15T06:58:46.318Z,6.60
2023-04-15T07:01:14.117Z,7.13
2023-04-15T07:03:41.984Z,7.55
2023-04-15T07:06:09.474Z,5.32
2023-04-15T07:08:36.741Z,5.80
2023-04-15T07:11:04.104Z,6.45
2023-04-15T07:13:31.593Z,5.97
2023-04-15T07:15:58.305Z,6.15
2023-04-15T07:18:25.613Z,7.78
2023-04-15T07:20:52.158Z,9.05
2023-04-15T07:23:18.853Z,8.00
2023-04-15T07:25:45.389Z,6.80
2023-04-15T07:28:12.247Z,9.25
2023-04-15T07:30:38.941Z,6.80
2023-04-15T07:33:05.822Z,11.00
2023-04-15T07:35:33.463Z,7.43
2023-04-15T07:38:01.417Z,6.97
2023-04-15T07:40:28.229Z,5.22
2023-04-15T07:42:57.230Z,5.28
2023-04-15T07:45:23.897Z,5.78
2023-04-15T07:47:51.402Z,5.25
2023-04-15T07:50:19.722Z,4.95
2023-04-15T07:52:46.329Z,4.85
2023-04-15T07:55:13.414Z,4.35
2023-04-15T07:57:41.987Z,5.40
2023-04-15T08:00:08.912Z,3.85
2023-04-15T08:02:42.784Z,4.53
2023-04-15T08:05:10.740Z,4.78
2023-04-15T08:07:38.335Z,5.07
2023-04-15T08:10:05.086Z,5.07
2023-04-15T08:12:31.803Z,5.30
2023-04-15T08:14:58.311Z,5.30
2023-04-15T08:17:24.953Z,5.18
2023-04-15T08:19:51.456Z,5.18
2023-04-15T08:22:18.912Z,4.95
2023-04-15T08:24:46.566Z,5.57
2023-04-15T08:27:13.862Z,4.22
2023-04-15T08:29:40.703Z,4.20
2023-04-15T08:32:07.660Z,4.80
2023-04-15T08:34:34.884Z,3.50
2023-04-15T08:37:01.602Z,3.90
2023-04-15T08:39:28.335Z,4.32
2023-04-15T08:41:54.901Z,4.93
2023-04-15T08:44:23.768Z,5.90
2023-04-15T08:46:52.156Z,4.13
2023-04-15T08:49:19.257Z,5.35
2023-04-15T08:51:45.914Z,4.40
2023-04-15T08:54:13.055Z,390.05
2023-04-15T08:56:39.680Z,262.40
2023-04-15T08:59:07.754Z,14.27
2023-04-15T09:01:34.373Z,4.63
2023-04-15T09:04:02.815Z,5.22
2023-04-15T09:06:29.975Z,5.47
2023-04-15T09:08:57.507Z,5.18
2023-04-15T09:11:24.660Z,3.78
2023-04-15T09:13:51.858Z,4.03
2023-04-15T09:16:18.862Z,3.70
2023-04-15T09:18:45.635Z,3.85
2023-04-15T09:21:14.096Z,3.90
2023-04-15T09:23:42.337Z,4.70
2023-04-15T09:26:09.095Z,6.22
2023-04-15T09:28:41.713Z,13.25
2023-04-15T09:31:09.402Z,4.43
2023-04-15T09:33:36.066Z,19.50
2023-04-15T09:36:04.703Z,7.75
2023-04-15T09:38:32.366Z,4.68
2023-04-15T09:40:59.315Z,6.97
2023-04-15T09:43:41.421Z,4.53
2023-04-15T09:46:08.262Z,3.08
2023-04-15T09:48:34.744Z,4.07
2023-04-15T09:51:01.944Z,3.58
2023-04-15T09:53:30.551Z,3.85
2023-04-15T09:55:59.372Z,3.72
2023-04-15T09:58:27.587Z,3.92
2023-04-15T10:00:56.397Z,4.22
2023-04-15T10:03:22.877Z,4.60
2023-04-15T10:05:50.837Z,3.53
2023-04-15T10:08:22.383Z,3.92
2023-04-15T10:10:49.286Z,3.47
2023-04-15T10:13:19.713Z,3.03
2023-04-15T10:15:50.365Z,3.20
2023-04-15T10:18:18.717Z,5.03
2023-04-15T10:20:46.265Z,5.30
2023-04-15T10:23:13.512Z,5.88
2023-04-15T10:25:40.728Z,4.22
2023-04-15T10:28:09.318Z,3.92
2023-04-15T10:30:36.700Z,4.90
2023-04-15T10:33:04.131Z,5.00
2023-04-15T10:35:31.263Z,5.60
2023-04-15T10:37:57.874Z,6.65
2023-04-15T10:40:27.793Z,5.88
2023-04-15T10:42:55.415Z,5.45
2023-04-15T10:45:22.124Z,5.47
2023-04-15T10:47:52.203Z,5.47
2023-04-15T10:50:19.580Z,4.88
2023-04-15T10:52:46.070Z,5.47
2023-04-15T10:55:18.820Z,8.55
2023-04-15T10:57:45.669Z,5.53
2023-04-15T11:00:15.989Z,5.00
2023-04-15T11:03:01.394Z,5.80
2023-04-15T11:05:43.349Z,5.93
2023-04-15T11:08:10.911Z,4.85
2023-04-15T11:10:37.310Z,5.03
2023-04-15T11:13:04.014Z,3.85
2023-04-15T11:15:35.645Z,3.20
2023-04-15T11:18:15.309Z,4.82
2023-04-15T11:20:44.987Z,3.97
2023-04-15T11:23:14.777Z,4.63
2023-04-15T11:25:43.233Z,4.03
2023-04-15T11:28:11.040Z,4.10
2023-04-15T11:30:39.531Z,5.05
2023-04-15T11:33:08.391Z,4.55
2023-04-15T11:35:36.997Z,4.40
2023-04-15T11:38:05.264Z,5.30
2023-04-15T11:40:33.478Z,4.55
2023-04-15T11:43:10.206Z,5.00
2023-04-15T11:45:38.040Z,6.80
2023-04-15T11:48:13.258Z,3.85
2023-04-15T11:50:43.222Z,3.85
2023-04-15T11:53:11.018Z,4.95
2023-04-15T11:55:43.211Z,4.93
2023-04-15T11:58:16.103Z,5.22
2023-04-15T12:00:47.611Z,4.75
2023-04-15T12:03:17.300Z,4.45
2023-04-15T12:06:03.298Z,3.97
2023-04-15T12:08:49.085Z,4.18
2023-04-15T12:11:16.593Z,4.78
2023-04-15T12:13:47.171Z,5.53
2023-04-15T12:16:16.829Z,4.90
2023-04-15T12:18:45.078Z,5.43
2023-04-15T12:21:12.219Z,4.10
2023-04-15T12:23:39.294Z,4.63
2023-04-15T12:26:06.854Z,5.05
2023-04-15T12:28:35.234Z,5.40
2023-04-15T12:31:07.182Z,4.72
2023-04-15T12:33:35.912Z,4.40
2023-04-15T12:36:03.113Z,3.72
2023-04-15T12:38:31.387Z,4.15
2023-04-15T12:40:58.357Z,3.75
2023-04-15T12:43:25.168Z,4.30
2023-04-15T12:45:52.279Z,4.78
2023-04-15T12:48:18.702Z,4.55
2023-04-15T12:50:45.325Z,5.40
2023-04-15T12:53:11.899Z,4.90
2023-04-15T12:55:38.301Z,5.38
2023-04-15T12:58:05.635Z,4.88
2023-04-15T13:00:33.670Z,4.55
2023-04-15T13:03:00.202Z,5.60
2023-04-15T13:05:26.847Z,3.95
2023-04-15T13:07:53.275Z,6.85
2023-04-15T13:10:20.119Z,5.40
2023-04-15T13:12:47.955Z,4.25
2023-04-15T13:15:14.476Z,5.18
2023-04-15T13:17:41.104Z,5.13
2023-04-15T13:20:08.813Z,5.75
2023-04-15T13:22:35.282Z,6.75
2023-04-15T13:25:01.760Z,7.78
2023-04-15T13:27:28.621Z,5.80
2023-04-15T13:29:55.445Z,7.10
2023-04-15T13:32:24.605Z,7.95
2023-04-15T13:34:51.194Z,8.07
2023-04-15T13:37:17.783Z,7.20
2023-04-15T13:39:44.611Z,7.28
2023-04-15T13:42:11.107Z,9.93
2023-04-15T13:44:38.408Z,9.35
2023-04-15T13:47:05.312Z,8.55
2023-04-15T13:49:31.724Z,8.07
2023-04-15T13:51:59.089Z,8.43
2023-04-15T13:54:25.554Z,10.60
2023-04-15T13:57:05.036Z,9.57
2023-04-15T13:59:35.471Z,11.05
2023-04-15T14:02:02.085Z,10.55
2023-04-15T14:04:28.978Z,12.02
2023-04-15T14:06:56.133Z,10.80
2023-04-15T14:09:26.298Z,11.38
2023-04-15T14:11:53.032Z,13.30
2023-04-15T14:14:19.519Z,10.05
2023-04-15T14:16:46.132Z,11.68
2023-04-15T14:19:12.841Z,11.63
2023-04-15T14:21:39.337Z,11.02
2023-04-15T14:24:06.097Z,11.70
2023-04-15T14:26:33.534Z,11.18
2023-04-15T14:29:00.520Z,10.43
2023-04-15T14:31:27.168Z,11.63
2023-04-15T14:33:53.849Z,11.65
2023-04-15T14:36:21.349Z,10.95
2023-04-15T14:38:48.713Z,10.30
2023-04-15T14:41:16.380Z,9.93
2023-04-15T14:43:42.843Z,11.38
2023-04-15T14:46:10.662Z,11.30
2023-04-15T14:48:37.507Z,11.52
2023-04-15T14:51:04.188Z,11.95
2023-04-15T14:53:31.034Z,9.75
2023-04-15T14:55:57.680Z,8.85
2023-04-15T14:58:24.232Z,9.07
2023-04-15T15:00:52.839Z,9.43
2023-04-15T15:03:19.306Z,10.13
2023-04-15T15:05:46.838Z,9.82
2023-04-15T15:08:13.754Z,9.45
2023-04-15T15:10:48.224Z,10.43
2023-04-15T15:13:16.890Z,9.07
2023-04-15T15:15:43.411Z,9.15
2023-04-15T15:18:10.403Z,9.70
2023-04-15T15:20:38.383Z,9.52
2023-04-15T15:23:04.839Z,11.07
2023-04-15T15:25:31.841Z,11.32
2023-04-15T15:27:58.867Z,11.55
2023-04-15T15:30:26.252Z,12.15
2023-04-15T15:32:52.795Z,12.68
2023-04-15T15:35:19.473Z,10.23
2023-04-15T15:37:45.944Z,11.82
2023-04-15T15:40:12.627Z,12.43
2023-04-15T15:42:39.139Z,10.55
2023-04-15T15:45:09.199Z,10.90
2023-04-15T15:47:35.823Z,10.13
2023-04-15T15:50:04.245Z,10.23
2023-04-15T15:52:32.094Z,10.32
2023-04-15T15:54:58.820Z,9.23
2023-04-15T15:57:25.771Z,8.35
2023-04-15T16:00:04.813Z,8.38
2023-04-15T16:02:59.866Z,8.18
2023-04-15T16:05:20.438Z,8.48
2023-04-15T16:07:47.007Z,7.90
2023-04-15T16:10:14.163Z,8.27
2023-04-15T16:12:41.869Z,9.40
2023-04-15T16:15:09.723Z,8.63
2023-04-15T16:17:36.434Z,8.90
2023-04-15T16:20:05.924Z,9.38
2023-04-15T16:22:35.405Z,9.73
2023-04-15T16:25:02.005Z,13.68
2023-04-15T16:27:28.844Z,10.30
2023-04-15T16:29:55.717Z,11.50
2023-04-15T16:32:22.480Z,14.75
2023-04-15T16:34:49.343Z,9.65
2023-04-15T16:37:16.335Z,7.85
2023-04-15T16:39:43.007Z,8.13
2023-04-15T16:42:10.221Z,9.15
2023-04-15T16:44:36.815Z,10.00
2023-04-15T16:47:04.030Z,10.57
2023-04-15T16:49:30.516Z,10.98
2023-04-15T16:51:57.274Z,28.60
2023-04-15T16:54:23.868Z,11.02
2023-04-15T16:56:50.536Z,14.02
2023-04-15T16:59:17.032Z,11.82
2023-04-15T17:01:43.784Z,11.77
2023-04-15T17:04:10.954Z,15.20
2023-04-15T17:06:37.510Z,19.75
2023-04-15T17:09:04.684Z,36.75
2023-04-15T17:11:32.097Z,20.30
2023-04-15T17:13:58.547Z,20.00
2023-04-15T17:16:25.308Z,15.38
2023-04-15T17:18:51.827Z,20.50
2023-04-15T17:21:18.269Z,17.25
2023-04-15T17:23:44.726Z,15.35
2023-04-15T17:26:11.399Z,27.92
2023-04-15T17:28:38.060Z,38.65
2023-04-15T17:31:05.004Z,23.60
2023-04-15T17:33:57.988Z,11.98
2023-04-15T17:36:18.845Z,10.95
2023-04-15T17:38:45.720Z,10.63
2023-04-15T17:41:12.343Z,11.95
2023-04-15T17:43:38.900Z,19.02
2023-04-15T17:46:07.118Z,28.92
2023-04-15T17:48:34.017Z,22.15
2023-04-15T17:54:05.007Z,14.80
2023-04-15T17:56:31.605Z,15.77
2023-04-15T17:58:58.814Z,16.38
2023-04-15T18:01:26.482Z,14.60
2023-04-15T18:03:53.621Z,19.95
2023-04-15T18:06:21.480Z,16.15
2023-04-15T18:08:48.400Z,14.90
2023-04-15T18:11:16.555Z,15.82
2023-04-15T18:13:43.767Z,15.13
2023-04-15T18:16:10.518Z,15.27
2023-04-15T18:18:37.091Z,15.80
2023-04-15T18:21:03.813Z,17.08
2023-04-15T18:23:30.253Z,16.65
2023-04-15T18:25:58.120Z,15.25
2023-04-15T18:28:24.754Z,16.52
2023-04-15T18:30:51.493Z,14.80
2023-04-15T18:33:18.088Z,21.17
2023-04-15T18:35:44.595Z,20.25
2023-04-15T18:38:11.170Z,16.00
2023-04-15T18:40:37.647Z,22.80
2023-04-15T18:43:04.353Z,17.75
2023-04-15T18:45:31.574Z,17.38
2023-04-15T18:47:59.027Z,15.77
2023-04-15T18:50:25.942Z,18.42
2023-04-15T18:52:52.385Z,16.05
2023-04-15T18:55:19.275Z,18.42
2023-04-15T18:57:46.665Z,18.98
2023-04-15T19:00:16.628Z,18.33
2023-04-15T19:02:44.009Z,18.40
2023-04-15T19:05:11.090Z,18.60
2023-04-15T19:07:37.697Z,16.63
2023-04-15T19:10:05.809Z,15.93
2023-04-15T19:12:32.366Z,18.65
2023-04-15T19:14:59.344Z,18.13
2023-04-15T19:17:26.628Z,18.63
2023-04-15T19:19:53.320Z,19.33
2023-04-15T19:22:19.767Z,23.48
2023-04-15T19:24:46.460Z,19.40
2023-04-15T19:27:12.892Z,18.55
2023-04-15T19:29:39.997Z,20.92
2023-04-15T19:32:07.228Z,20.67
2023-04-15T19:34:34.632Z,21.98
2023-04-15T19:37:01.124Z,19.77
2023-04-15T19:39:28.146Z,23.33
2023-04-15T19:41:55.864Z,21.35
2023-04-15T19:44:22.379Z,26.80
2023-04-15T19:46:51.556Z,24.25
2023-04-15T19:49:18.149Z,24.02
2023-04-15T19:51:44.580Z,27.13
2023-04-15T19:54:11.651Z,27.23
2023-04-15T19:56:38.121Z,24.98
2023-04-15T19:59:04.965Z,22.30
2023-04-15T20:01:32.085Z,24.50
2023-04-15T20:03:58.916Z,24.35
2023-04-15T20:06:27.393Z,27.98
2023-04-15T20:08:54.326Z,28.10
2023-04-15T20:11:22.085Z,26.48
2023-04-15T20:13:48.699Z,31.30
2023-04-15T20:16:15.633Z,29.33
2023-04-15T20:18:42.641Z,27.17
2023-04-15T20:21:14.975Z,26.73
2023-04-15T20:23:42.361Z,30.92
2023-04-15T20:26:08.830Z,28.98
2023-04-15T20:28:36.452Z,32.95
2023-04-15T20:31:03.007Z,35.85
2023-04-15T20:33:29.900Z,35.38
2023-04-15T20:35:57.356Z,38.00
2023-04-15T20:38:26.271Z,42.95
2023-04-15T20:40:52.682Z,45.60
2023-04-15T20:43:19.492Z,37.65
2023-04-15T20:45:46.682Z,42.40
2023-04-15T20:48:14.034Z,43.05
2023-04-15T20:50:40.603Z,38.58
2023-04-15T20:53:07.745Z,41.63
2023-04-15T20:55:34.283Z,37.40
2023-04-15T20:58:00.770Z,39.03
2023-04-15T21:00:28.224Z,38.70
2023-04-15T21:02:56.815Z,41.22
2023-04-15T21:05:23.348Z,37.38
2023-04-15T21:07:50.082Z,36.97
2023-04-15T21:10:16.577Z,36.13
2023-04-15T21:12:43.092Z,36.95
2023-04-15T21:15:09.876Z,37.97
2023-04-15T21:17:37.190Z,35.72
2023-04-15T21:20:04.216Z,31.65
2023-04-15T21:22:31.486Z,33.13
2023-04-15T21:24:57.967Z,36.05
2023-04-15T21:27:26.108Z,30.42
2023-04-15T21:29:52.563Z,32.03
2023-04-15T21:32:19.134Z,32.47
2023-04-15T21:34:45.718Z,36.08
2023-04-15T21:37:12.244Z,38.88
2023-04-15T21:39:38.756Z,37.67
2023-04-15T21:42:05.623Z,36.83
2023-04-15T21:44:32.100Z,39.22
2023-04-15T21:46:58.819Z,38.13
2023-04-15T21:49:25.648Z,40.60
2023-04-15T21:51:52.226Z,38.47
2023-04-15T21:54:18.783Z,41.22
2023-04-15T21:56:46.086Z,42.80
2023-04-15T21:59:12.547Z,39.03
2023-04-15T22:01:42.214Z,39.55
2023-04-15T22:04:11.176Z,40.80
2023-04-15T22:06:38.055Z,41.00
2023-04-15T22:09:04.522Z,40.25
2023-04-15T22:11:31.097Z,38.38
2023-04-15T22:13:58.329Z,40.55
2023-04-15T22:16:25.884Z,39.33
2023-04-15T22:18:52.516Z,35.38
2023-04-15T22:21:19.247Z,36.92
2023-04-15T22:23:46.836Z,35.20
2023-04-15T22:26:13.282Z,38.22
2023-04-15T22:28:39.777Z,39.50
2023-04-15T22:31:06.644Z,36.20
2023-04-15T22:33:33.785Z,37.55
2023-04-15T22:36:00.662Z,35.28
2023-04-15T22:38:27.155Z,36.13
2023-04-15T22:40:53.991Z,40.70
2023-04-15T22:43:20.710Z,39.92
2023-04-15T22:45:50.731Z,42.30
2023-04-15T22:48:17.808Z,39.70
2023-04-15T22:50:44.416Z,39.58
2023-04-15T22:53:10.913Z,42.85
2023-04-15T22:55:37.451Z,41.63
2023-04-15T22:58:03.958Z,45.42
2023-04-15T23:00:30.429Z,47.80
2023-04-15T23:02:57.033Z,49.42
2023-04-15T23:05:23.700Z,51.47
2023-04-15T23:07:50.652Z,45.30
2023-04-15T23:10:17.313Z,44.85
2023-04-15T23:12:43.800Z,45.15
2023-04-15T23:15:10.942Z,46.47
2023-04-15T23:17:37.387Z,48.80
2023-04-15T23:20:04.288Z,50.53
2023-04-15T23:22:30.848Z,58.97
2023-04-15T23:24:57.296Z,48.35
2023-04-15T23:27:23.813Z,70.22
2023-04-15T23:29:50.303Z,62.95
2023-04-15T23:32:16.909Z,80.07
2023-04-15T23:34:43.421Z,76.95
2023-04-15T23:37:10.210Z,66.18
2023-04-15T23:39:36.669Z,56.08
2023-04-15T23:42:03.348Z,60.13
2023-04-15T23:44:29.818Z,71.03
2023-04-15T23:46:56.637Z,77.07
2023-04-15T23:49:23.205Z,107.07
2023-04-15T23:51:49.914Z,90.07
2023-04-15T23:54:16.355Z,85.18
2023-04-15T23:56:42.836Z,60.78
2023-04-15T23:59:09.471Z,91.70
